Terminal Aerodrome Forecast
Issued by NWS Caribou, ME

Home | Current Version | Previous Version | Text Only | Print | Product List | Glossary On
Versions: 1 2 3 4 5 6 7 8 9 10 11
000
FTUS41 KCAR 221100 RRA
TAFCAR
TAF
KCAR 221151Z 2212/2312 21004KT P6SM FEW250
     FM221700 23010G20KT P6SM SKC
     FM230000 22004KT P6SM SKC=

USA.gov is the U.S. government's official web portal to all federal, state and local government web resources and services.